Nearby METAR Reports

 

KFRG - , , USA
Distance from station: SSW 12mi, 20km
Updated: 09/21/2018 9:53am
Overcast
Overcast
 Wind from S
Wind: S 14 mph , 22 km/h
Temperature: 70°F , 21°C
Dew Point: 59°F , 15°C
Humidity: 69%
Barometer: 30.26 inHg , 1024.7 hPa
Clouds: Overcast
Visibility: 10 miles , 16 km
Cloud details: Mostly cloudy 4100 ft
Overcast 6000 ft
2018/09/21 13:53 KFRG 211353Z AUTO 17012KT 10SM BKN041 OVC060 21/15 A3026 RMK AO2 SLP245 T02060150
KISP - , , USA
Distance from station: ESE 14mi, 23km
Updated: 09/21/2018 9:56am
Mostly cloudy
Mostly cloudy
 Wind from ESE
Wind: ESE 13 mph , 20 km/h
Temperature: 72°F , 22°C
Dew Point: 57°F , 14°C
Humidity: 61%
Barometer: 30.25 inHg , 1024.4 hPa
Clouds: Mostly cloudy
Visibility: 10 miles , 16 km
Cloud details: Few Clouds 2800 ft
Mostly cloudy 4600 ft
2018/09/21 13:56 KISP 211356Z 12011KT 10SM FEW028 BKN046 22/14 A3025 RMK AO2 SLP243 T02170144
 
KBDR - , , USA
Distance from station: NNE 21mi, 34km
Updated: 09/21/2018 9:52am
Overcast
Overcast
 Wind from S
Wind: S 9 mph , 15 km/h
Temperature: 70°F , 21°C
Dew Point: 59°F , 15°C
Humidity: 69%
Barometer: 30.25 inHg , 1024.4 hPa
Clouds: Overcast
Visibility: 10 miles , 16 km
Cloud details: Few Clouds 2600 ft
Mostly cloudy 4100 ft
Overcast 5500 ft
2018/09/21 13:52 KBDR 211352Z 17008KT 10SM FEW026 BKN041 OVC055 21/15 A3025 RMK AO2 SLP244 T02060150
KHPN - , , USA
Distance from station: WNW 22mi, 35km
Updated: 09/21/2018 9:56am
Mostly cloudy
Mostly cloudy
 Wind from S
Wind: S 7 mph , 11 km/h
Temperature: 66°F , 19°C
Dew Point: 59°F , 15°C
Humidity: 78%
Barometer: 30.25 inHg , 1024.4 hPa
Clouds: Mostly cloudy
Visibility: 10 miles , 16 km
Cloud details: Partly cloudy 1500 ft
Mostly cloudy 3000 ft
2018/09/21 13:56 KHPN 211356Z 17006KT 10SM SCT015 BKN030 19/15 A3025 RMK AO2 SLP239 T01940150
 
KHWV - , , USA
Distance from station: ESE 26mi, 41km
Updated: 09/21/2018 9:56am
Clear
Clear
 Wind from SSE
Wind: SSE 12 mph , 19 km/h
Temperature: 70°F , 21°C
Dew Point: 57°F , 14°C
Humidity: 64%
Barometer: 30.27 inHg , 1025.1 hPa
Clouds: Clear
Visibility: 10 miles , 16 km
2018/09/21 13:56 KHWV 211356Z AUTO 15010KT 10SM CLR 21/14 A3027 RMK AO2 SLP251 T02110139
KJFK - , , USA
Distance from station: SW 29mi, 46km
Updated: 09/21/2018 9:51am
Mostly cloudy
Mostly cloudy
 Wind from S
Wind: S 12 mph , 19 km/h
Temperature: 70°F , 21°C
Dew Point: 63°F , 17°C
Humidity: 78%
Barometer: 30.26 inHg , 1024.7 hPa
Clouds: Mostly cloudy
Visibility: 10 miles , 16 km
Cloud details: Few Clouds 2500 ft
Mostly cloudy 3900 ft
Mostly cloudy 5000 ft
2018/09/21 13:51 KJFK 211351Z 17010KT 10SM FEW025 BKN039 BKN050 21/17 A3026 RMK AO2 SLP246 T02110167
 
KLGA - , , USA
Distance from station: WSW 29mi, 47km
Updated: 09/21/2018 9:51am
Overcast
Overcast
 Wind from S
Wind: S 12 mph , 19 km/h
Temperature: 72°F , 22°C
Dew Point: 59°F , 15°C
Humidity: 65%
Barometer: 30.24 inHg , 1024 hPa
Clouds: Overcast
Visibility: 10 miles , 16 km
Cloud details: Few Clouds 2500 ft
Overcast 3700 ft
2018/09/21 13:51 KLGA 211351Z 19010KT 10SM FEW025 OVC037 22/15 A3024 RMK AO2 SLP239 T02170150 $